Search for airport 
image banner adimage banner adimage banner ad
image banner ad

CL45 - North Net Training Authority

Located in Anaheim, United States

ICAO - CL45, IATA -

Data provided by Airmate  

General information

Coordinates: N33°47'42" W117°52'52"
Elevation is 145 feet MSL.
Magnetic variation is 14° East
View others Airports in California

Operational data

Special qualification required
Current time UTC:
Current local time:
Weather at : KFUL - Fullerton Muni ( 13 km )
METAR: KFUL 292253Z 28007KT 220V310 10SM CLR 32/12 A2984 RMK AO2 SLP104 T03170122
View NOTAMs / SUP AIP / TFR affecting this airport [VIEW]
Communications frequencies: [VIEW]

Runways:

Airport contact information

Address: Anaheim United States

Satellite view of CL45